Data for 03/09/2005

Time Sea-Level Adjusted Pressure Absolute Pressure Temperature Relative Humidity Dew Point   
(mb) (inHg) (mb) (inHg) (C) (F) (%) (C) (F)
00:05 1023 30.21 852 25.16 9.8 49.6 34 -5.2 22.7
00:10 1023 30.21 852 25.16 9.6 49.3 35 -5.2 22.6
00:15 1023 30.21 852 25.16 9.4 49 35 -5.4 22.4
00:20 1023 30.21 852 25.16 9.4 49 35 -5.4 22.3
00:25 1022 30.18 852 25.16 9.4 49 35 -5.2 22.6
00:30 1023 30.21 852 25.16 9.5 49.1 34 -5.5 22
00:35 1023 30.21 852 25.16 9.6 49.3 35 -5.2 22.7
00:40 1022 30.18 852 25.16 9.2 48.6 36 -4.9 23.2
00:45 1022 30.18 852 25.16 9.2 48.6 35 -5.4 22.4
00:50 1022 30.18 852 25.16 9.6 49.2 32 -6.2 20.8
00:55 1022 30.18 852 25.16 10.1 50.2 32 -6 21.2
01:00 1022 30.18 852 25.16 10.3 50.5 32 -5.8 21.6
01:05 1022 30.18 852 25.16 10.4 50.7 31 -6 21.3
01:10 1022 30.18 852 25.16 10.5 51 31 -5.9 21.5
01:15 1022 30.18 852 25.16 10.7 51.2 30 -6.1 21
01:20 1022 30.18 852 25.16 10.8 51.4 30 -6.2 20.8
01:25 1022 30.18 852 25.16 10.8 51.4 30 -6 21.2
01:30 1022 30.18 852 25.16 10.6 51.1 31 -5.6 21.8
01:35 1022 30.18 852 25.16 10.2 50.4 33 -5.1 22.8
01:40 1023 30.21 852 25.16 9.6 49.4 35 -5.1 22.8
01:45 1022 30.18 852 25.16 9.2 48.6 38 -4.2 24.4
01:50 1023 30.21 852 25.16 8.8 47.8 40 -4.2 24.5
01:55 1022 30.18 852 25.16 8.9 47.9 37 -5 22.9
02:00 1022 30.18 852 25.16 9.4 48.8 34 -5.8 21.5
02:05 1022 30.18 852 25.16 9.6 49.3 38 -4.1 24.7
02:10 1022 30.18 852 25.16 9 48.2 38 -4.7 23.6
02:15 1022 30.18 852 25.16 9.6 49.2 37 -4.5 23.8
02:20 1022 30.18 851 25.13 9.8 49.6 40 -3.2 26.2
02:25 1022 30.18 851 25.13 9.5 49.1 43 -2.5 27.4
02:30 1022 30.18 851 25.13 9 48.2 45 -2.3 27.8
02:35 1022 30.18 851 25.13 8.6 47.5 45 -2.5 27.5
02:40 1022 30.18 851 25.13 8.3 46.9 47 -2.4 27.6
02:45 1022 30.18 851 25.13 8.3 47 46 -2.7 27.1
02:50 1022 30.18 851 25.13 8.5 47.3 45 -2.8 27
02:55 1022 30.18 851 25.13 8.5 47.3 45 -2.6 27.3
03:00 1022 30.18 851 25.13 8.6 47.4 45 -2.7 27.2
03:05 1022 30.18 851 25.13 8.8 47.9 43 -2.9 26.8
03:10 1022 30.18 851 25.13 8.9 48.1 45 -2.3 27.8
03:15 1022 30.18 851 25.13 8.3 46.9 48 -2.1 28.3
03:20 1022 30.18 851 25.13 7.6 45.6 51 -1.9 28.6
03:25 1022 30.18 851 25.13 7 44.6 51 -2.5 27.4
03:30 1022 30.18 851 25.13 6.8 44.2 51 -2.8 27
03:35 1022 30.18 851 25.13 7.2 44.9 48 -3 26.6
03:40 1022 30.18 851 25.13 7.6 45.6 48 -2.6 27.3
03:45 1022 30.18 851 25.13 7.6 45.7 49 -2.5 27.5
03:50 1022 30.18 851 25.13 7.4 45.3 49 -2.5 27.4
03:55 1022 30.18 851 25.13 7.1 44.8 51 -2.3 27.9
04:00 1021 30.15 851 25.13 6.7 44 52 -2.5 27.5
04:05 1021 30.15 851 25.13 6.4 43.5 54 -2.3 27.8
04:10 1021 30.15 851 25.13 5.7 42.2 56 -2.5 27.6
04:15 1021 30.15 851 25.13 5.8 42.5 49 -4 24.8
04:20 1021 30.15 851 25.13 7 44.6 49 -2.9 26.7
04:25 1021 30.15 851 25.13 6.6 43.9 49 -3.3 26
04:30 1021 30.15 851 25.13 7.1 44.8 48 -3.1 26.4
04:35 1022 30.18 851 25.13 6.8 44.2 52 -2.3 27.9
04:40 1021 30.15 851 25.13 5.7 42.2 55 -2.6 27.4
04:45 1021 30.15 851 25.13 5.6 42.1 56 -2.4 27.7
04:50 1021 30.15 851 25.13 5.5 42 56 -2.6 27.4
04:55 1021 30.15 851 25.13 5.6 42.2 55 -2.7 27.2
05:00 1021 30.15 851 25.13 5.4 41.7 57 -2.3 27.8
05:05 1021 30.15 851 25.13 5.5 41.8 56 -2.5 27.4
05:10 1021 30.15 851 25.13 5.5 41.9 55 -2.7 27.1
05:15 1021 30.15 851 25.13 5.8 42.4 56 -2.4 27.7
05:20 1021 30.15 850 25.1 5.7 42.3 55 -2.5 27.5
05:25 1021 30.15 850 25.1 5.6 42.1 56 -2.5 27.5
05:30 1021 30.15 850 25.1 5.4 41.8 56 -2.7 27.2
05:35 1021 30.15 850 25.1 5.2 41.3 57 -2.6 27.3
05:40 1021 30.15 851 25.13 5.1 41.2 55 -3.1 26.5
05:45 1021 30.15 851 25.13 5.4 41.7 55 -3 26.7
05:50 1021 30.15 851 25.13 5.3 41.5 56 -2.8 27
05:55 1021 30.15 851 25.13 5.4 41.7 56 -2.8 26.9
06:00 1021 30.15 851 25.13 5.2 41.4 57 -2.5 27.5
06:05 1022 30.18 851 25.13 5.4 41.8 56 -2.7 27.1
06:10 1021 30.15 851 25.13 5.5 41.8 56 -2.6 27.4
06:15 1021 30.15 851 25.13 5.5 41.8 55 -2.8 26.9
06:20 1022 30.18 851 25.13 5.2 41.4 58 -2.4 27.6
06:25 1022 30.18 851 25.13 4.8 40.6 58 -2.7 27.2
06:30 1022 30.18 851 25.13 5.1 41.2 58 -2.5 27.4
06:35 1022 30.18 851 25.13 5.6 42.1 56 -2.6 27.4
06:40 1022 30.18 851 25.13 5.7 42.3 55 -2.5 27.5
06:45 1022 30.18 851 25.13 6 42.9 54 -2.6 27.3
06:50 1022 30.18 851 25.13 6.1 43 55 -2.3 27.9
06:55 1022 30.18 851 25.13 5.8 42.5 56 -2.3 27.9
07:00 1022 30.18 851 25.13 5.8 42.5 56 -2.3 27.8
07:05 1022 30.18 851 25.13 5.7 42.2 56 -2.5 27.6
07:10 1022 30.18 851 25.13 5.5 42 56 -2.5 27.5
07:15 1022 30.18 851 25.13 5.4 41.7 58 -2.3 27.9
07:20 1022 30.18 851 25.13 5.3 41.6 56 -2.7 27.1
07:25 1022 30.18 851 25.13 5.3 41.5 56 -2.8 27
07:30 1022 30.18 851 25.13 5.1 41.3 57 -2.6 27.3
07:35 1022 30.18 851 25.13 5.1 41.2 58 -2.5 27.5
07:40 1022 30.18 851 25.13 5.2 41.4 57 -2.7 27.2
07:45 1022 30.18 851 25.13 5.4 41.7 56 -2.7 27.2
07:50 1022 30.18 851 25.13 5.5 41.9 55 -2.8 26.9
07:55 1022 30.18 851 25.13 5.5 42 54 -2.9 26.7
08:00 1022 30.18 851 25.13 5.7 42.2 55 -2.7 27.2
08:05 1022 30.18 851 25.13 5.6 42.1 54 -2.9 26.8
08:10 1022 30.18 851 25.13 6.1 42.9 51 -3.4 25.9
08:15 1022 30.18 851 25.13 6.2 43.2 53 -2.7 27.1
08:20 1022 30.18 851 25.13 6 42.8 54 -2.6 27.3
08:25 1022 30.18 851 25.13 5.9 42.6 56 -2.3 27.9
08:30 1022 30.18 851 25.13 5.9 42.5 56 -2.3 27.9
08:35 1022 30.18 851 25.13 6 42.9 55 -2.3 27.9
08:40 1022 30.18 851 25.13 6.4 43.6 53 -2.4 27.6
08:45 1022 30.18 851 25.13 6.9 44.4 52 -2.4 27.7
08:50 1022 30.18 851 25.13 7.2 45 50 -2.4 27.7
08:55 1022 30.18 851 25.13 7.5 45.5 51 -2 28.4
09:00 1022 30.18 851 25.13 7.7 45.9 50 -2.1 28.3
09:05 1022 30.18 851 25.13 8 46.3 50 -1.9 28.5
09:10 1022 30.18 851 25.13 8.2 46.7 48 -2.1 28.2
09:15 1022 30.18 851 25.13 8.7 47.6 46 -2.3 27.9
09:20 1022 30.18 851 25.13 9 48.3 44 -2.5 27.4
09:25 1022 30.18 851 25.13 9.3 48.7 43 -2.7 27.2
09:30 1022 30.18 851 25.13 9.7 49.5 39 -3.7 25.4
09:35 1022 30.18 852 25.16 10.5 50.9 35 -4.3 24.3
09:40 1022 30.18 851 25.13 11.6 52.9 30 -5.1 22.8
09:45 1022 30.18 851 25.13 12.7 54.8 29 -4.9 23.1
09:50 1022 30.18 851 25.13 13.2 55.8 27 -5.1 22.8
09:55 1022 30.18 851 25.13 13.6 56.5 27 -4.8 23.4
10:00 1022 30.18 851 25.13 13.6 56.4 27 -4.8 23.3
10:05 1022 30.18 851 25.13 13.6 56.5 27 -5 23
10:10 1022 30.18 851 25.13 13.5 56.2 27 -4.9 23.2
10:15 1022 30.18 851 25.13 12.8 55.1 30 -4.2 24.5
10:20 1022 30.18 851 25.13 12.2 53.9 30 -5 23.1
10:25 1022 30.18 851 25.13 12.4 54.2 30 -4.8 23.4
10:30 1022 30.18 851 25.13 11.9 53.4 31 -4.7 23.5
10:35 1022 30.18 851 25.13 12.4 54.4 27 -5.9 21.3
10:40 1022 30.18 851 25.13 13.2 55.7 26 -6 21.2
10:45 1022 30.18 851 25.13 13.5 56.2 25 -6.2 20.8
10:50 1022 30.18 851 25.13 14.2 57.6 24 -6 21.2
10:55 1022 30.18 851 25.13 14.6 58.3 24 -5.5 22.2
11:00 1022 30.18 851 25.13 14.6 58.3 25 -5.3 22.4
11:05 1022 30.18 851 25.13 14.6 58.2 24 -5.5 22.1
11:10 1022 30.18 851 25.13 14.9 58.9 24 -5.5 22.1
11:15 1022 30.18 851 25.13 15.4 59.8 23 -5.7 21.8
11:20 1022 30.18 851 25.13 14.6 58.3 24 -5.5 22.2
11:25 1022 30.18 851 25.13 15 58.9 22 -6.2 20.8
11:30 1022 30.18 851 25.13 15.8 60.5 21 -6.6 20.1
11:35 1022 30.18 851 25.13 15.8 60.4 20 -7.1 19.2
11:40 1021 30.15 851 25.13 16 60.8 20 -7.2 19.1
11:45 1021 30.15 851 25.13 16.3 61.4 19 -7 19.5
11:50 1021 30.15 850 25.1 16.5 61.7 19 -7.2 19.1
11:55 1021 30.15 850 25.1 16.5 61.7 18 -7.9 17.7
12:00 1021 30.15 850 25.1 16.5 61.6 17 -8.3 17
12:05 1021 30.15 850 25.1 16.6 61.9 17 -8.3 17.1
12:10 1021 30.15 850 25.1 17 62.6 15 -9.8 14.4
12:15 1021 30.15 850 25.1 17.3 63.1 15 -9.2 15.5
12:20 1021 30.15 850 25.1 17.3 63.1 16 -8.6 16.6
12:25 1021 30.15 850 25.1 17.3 63.1 16 -8.5 16.7
12:30 1021 30.15 850 25.1 17.5 63.4 17 -7.5 18.5
12:35 1020 30.12 850 25.1 17.8 64.1 15 -8.9 16
12:40 1020 30.12 850 25.1 17.2 62.9 16 -8.6 16.6
12:45 1020 30.12 850 25.1 17.3 63.2 16 -9 15.8
12:50 1020 30.12 849 25.07 17.7 63.9 15 -9.4 15
12:55 1020 30.12 849 25.07 18.1 64.6 15 -9.3 15.3
13:00 1020 30.12 849 25.07 18.3 64.9 14 -10 14
13:05 1020 30.12 849 25.07 18.2 64.8 14 -9.8 14.3
13:10 1020 30.12 849 25.07 17.8 64 15 -9.4 15.1
13:15 1020 30.12 849 25.07 17.8 64.1 14 -10.1 13.9
13:20 1020 30.12 849 25.07 18.3 65 13 -10.2 13.7
13:25 1020 30.12 849 25.07 18 64.4 14 -10.1 13.7
13:30 1019 30.09 849 25.07 17.5 63.4 13 -10.9 12.4
13:35 1019 30.09 849 25.07 18.4 65 12 -11 12.2
13:40 1019 30.09 849 25.07 19.1 66.3 12 -10.6 12.9
13:45 1019 30.09 848 25.04 17.8 64.1 13 -10.5 13.2
13:50 1019 30.09 848 25.04 18.4 65.2 12 -11.1 12
13:55 1019 30.09 848 25.04 19.1 66.3 11 -12.1 10.3
14:00 1019 30.09 848 25.04 19 66.1 11 -11.7 10.9
14:05 1019 30.09 848 25.04 19.1 66.3 11 -12.2 10
14:10 1019 30.09 848 25.04 18.9 66 11 -12.4 9.8
14:15 1019 30.09 848 25.04 18.9 66.1 11 -12.2 10
14:20 1019 30.09 848 25.04 19 66.2 11 -12.3 9.8
14:25 1019 30.09 848 25.04 19 66.2 11 -12.4 9.8
14:30 1019 30.09 848 25.04 18.5 65.2 10 -13.2 8.2
14:35 1019 30.09 848 25.04 17.9 64.2 10 -13.6 7.5
14:40 1019 30.09 848 25.04 18 64.4 10 -13.5 7.7
14:45 1019 30.09 848 25.04 18.9 65.9 10 -13.4 7.9
14:50 1019 30.09 848 25.04 19.6 67.2 10 -12.7 9.2
14:55 1019 30.09 848 25.04 19.7 67.5 10 -12.4 9.6
15:00 1019 30.09 848 25.04 19.6 67.3 10 -12.6 9.2
15:05 1019 30.09 848 25.04 19.8 67.7 10 -12.9 8.7
15:10 1019 30.09 848 25.04 19.5 67.1 10 -13.1 8.4
15:15 1019 30.09 848 25.04 19.2 66.6 10 -13.5 7.7
15:20 1019 30.09 848 25.04 19.2 66.5 10 -12.9 8.8
15:25 1019 30.09 848 25.04 19.2 66.6 10 -13 8.7
15:30 1019 30.09 848 25.04 19.4 66.9 10 -12.4 9.7
15:35 1019 30.09 848 25.04 19.3 66.7 10 -12.5 9.5
15:40 1018 30.06 848 25.04 19.1 66.4 10 -12.7 9.1
15:45 1018 30.06 848 25.04 19 66.2 10 -12.8 8.9
15:50 1018 30.06 848 25.04 18.8 65.8 11 -12.5 9.5
15:55 1018 30.06 848 25.04 18.6 65.5 11 -12.8 9
16:00 1018 30.06 848 25.04 18.9 66 11 -12.5 9.6
16:05 1018 30.06 847 25.01 18.6 65.5 11 -12.9 8.7
16:10 1018 30.06 847 25.01 18.5 65.4 11 -12.8 8.9
16:15 1018 30.06 847 25.01 18.5 65.3 11 -12.6 9.4
16:20 1018 30.06 847 25.01 18.4 65.2 11 -12.6 9.3
16:25 1018 30.06 847 25.01 18.5 65.2 11 -12.6 9.4
16:30 1018 30.06 847 25.01 18.6 65.5 11 -12.3 9.9
16:35 1018 30.06 847 25.01 18.5 65.3 11 -12.2 10.1
16:40 1018 30.06 847 25.01 18.5 65.3 11 -12 10.4
16:45 1018 30.06 847 25.01 18.4 65.1 11 -12.2 10.1
16:50 1018 30.06 847 25.01 18.4 65.2 11 -12.1 10.3
16:55 1018 30.06 847 25.01 18.4 65 12 -12 10.4
17:00 1018 30.06 847 25.01 18.2 64.7 12 -11.6 11.1
17:05 1018 30.06 847 25.01 18 64.4 12 -12.1 10.3
17:10 1018 30.06 847 25.01 17.5 63.4 12 -12.1 10.2
17:15 1018 30.06 847 25.01 17 62.5 12 -12.3 9.8
17:20 1018 30.06 847 25.01 16.7 62.1 12 -12.6 9.3
17:25 1018 30.06 847 25.01 16.8 62.2 11 -13.5 7.7
17:30 1018 30.06 847 25.01 17.2 62.9 11 -13 8.5
17:35 1018 30.06 847 25.01 17.3 63.1 12 -12.9 8.8
17:40 1018 30.06 848 25.04 16.9 62.4 12 -12.7 9.2
17:45 1018 30.06 848 25.04 16.5 61.7 12 -12.8 9
17:50 1018 30.06 848 25.04 16.4 61.6 12 -12.5 9.4
17:55 1019 30.09 848 25.04 16.5 61.8 13 -12.3 9.9
18:00 1019 30.09 848 25.04 16.5 61.7 13 -11.6 11.1
18:05 1019 30.09 848 25.04 16.1 60.9 19 -7.5 18.5
18:10 1019 30.09 848 25.04 15.5 59.8 21 -6.8 19.8
18:15 1019 30.09 848 25.04 15.1 59.1 23 -5.8 21.6
18:20 1019 30.09 848 25.04 14.7 58.5 24 -5.7 21.7
18:25 1019 30.09 848 25.04 14.5 58.1 25 -5.4 22.4
18:30 1019 30.09 848 25.04 14.2 57.6 26 -5 23
18:35 1019 30.09 848 25.04 14 57.1 27 -4.6 23.7
18:40 1019 30.09 848 25.04 13.7 56.6 28 -4.3 24.2
18:45 1019 30.09 849 25.07 13.4 56.2 29 -4.1 24.7
18:50 1019 30.09 849 25.07 13.1 55.7 30 -3.9 25
18:55 1019 30.09 849 25.07 12.9 55.2 31 -3.8 25.2
19:00 1020 30.12 849 25.07 12.8 55 32 -3.6 25.5
19:05 1020 30.12 849 25.07 12.6 54.7 32 -3.5 25.7
19:10 1020 30.12 849 25.07 12.5 54.6 33 -3.3 26.1
19:15 1020 30.12 849 25.07 12.5 54.6 33 -3.2 26.2
19:20 1020 30.12 849 25.07 12.5 54.5 33 -3.1 26.3
19:25 1020 30.12 849 25.07 12.5 54.5 34 -3 26.5
19:30 1020 30.12 849 25.07 12.4 54.3 34 -2.9 26.7
19:35 1020 30.12 849 25.07 12.2 53.9 35 -2.8 27
19:40 1020 30.12 850 25.1 11.9 53.5 35 -2.8 26.9
19:45 1020 30.12 850 25.1 11.9 53.5 36 -2.5 27.5
19:50 1021 30.15 850 25.1 11.9 53.3 37 -2.4 27.6
19:55 1021 30.15 850 25.1 11.8 53.2 37 -2.2 28
20:00 1021 30.15 850 25.1 11.6 52.9 38 -2.2 28.1
20:05 1021 30.15 850 25.1 11.5 52.8 38 -2.3 27.8
20:10 1021 30.15 850 25.1 11.5 52.7 38 -2.3 27.8
20:15 1021 30.15 850 25.1 11.5 52.7 38 -2.4 27.8
20:20 1021 30.15 850 25.1 11.4 52.6 38 -2.3 27.9
20:25 1021 30.15 850 25.1 11.4 52.5 38 -2.5 27.5
20:30 1021 30.15 850 25.1 11.4 52.5 38 -2.5 27.4
20:35 1021 30.15 850 25.1 11.5 52.6 37 -2.5 27.5
20:40 1021 30.15 850 25.1 11.4 52.5 38 -2.5 27.4
20:45 1021 30.15 850 25.1 11.4 52.4 38 -2.5 27.5
20:50 1021 30.15 850 25.1 11.3 52.4 38 -2.4 27.6
20:55 1021 30.15 851 25.13 11.3 52.3 38 -2.5 27.4
21:00 1021 30.15 851 25.13 11.3 52.3 38 -2.5 27.5
21:05 1022 30.18 851 25.13 11.2 52.2 38 -2.5 27.6
21:10 1022 30.18 851 25.13 11.1 52 38 -2.5 27.4
21:15 1022 30.18 851 25.13 11.1 52 38 -2.6 27.3
21:20 1022 30.18 851 25.13 11 51.8 39 -2.5 27.6
21:25 1022 30.18 851 25.13 10.8 51.5 41 -1.9 28.6
21:30 1022 30.18 851 25.13 10.8 51.4 42 -1.5 29.3
21:35 1022 30.18 851 25.13 10.7 51.2 44 -1.1 30.1
21:40 1022 30.18 851 25.13 10.5 50.9 47 -0.3 31.5
21:45 1022 30.18 851 25.13 10.2 50.3 50 0.2 32.3
21:50 1022 30.18 851 25.13 9.9 49.8 52 0.5 32.9
21:55 1022 30.18 851 25.13 9.7 49.5 53 0.6 33.1
22:00 1022 30.18 851 25.13 9.6 49.3 54 0.8 33.5
22:05 1022 30.18 852 25.16 9.5 49.2 54 0.8 33.5
22:10 1022 30.18 852 25.16 9.3 48.8 56 1 33.7
22:15 1023 30.21 852 25.16 9.3 48.7 57 1.3 34.3
22:20 1023 30.21 852 25.16 9 48.2 59 1.4 34.5
22:25 1023 30.21 852 25.16 8.8 47.9 60 1.5 34.7
22:30 1023 30.21 852 25.16 8.7 47.7 61 1.6 34.8
22:35 1023 30.21 852 25.16 8.6 47.4 62 1.6 35
22:40 1023 30.21 852 25.16 8.3 46.9 63 1.7 35
22:45 1023 30.21 852 25.16 8 46.4 64 1.7 35.1
22:50 1023 30.21 852 25.16 7.7 45.9 65 1.7 35
22:55 1023 30.21 852 25.16 7.6 45.7 67 1.9 35.5
23:00 1023 30.21 852 25.16 7.6 45.7 68 2.1 35.8
23:05 1023 30.21 853 25.19 7.6 45.8 68 2.2 36
23:10 1023 30.21 853 25.19 7.5 45.5 69 2.3 36.1
23:15 1023 30.21 853 25.19 7.3 45.2 70 2.2 35.9
23:20 1023 30.21 853 25.19 7.2 45 71 2.3 36.2
23:25 1023 30.21 853 25.19 7.1 44.8 71 2.2 35.9
23:30 1023 30.21 853 25.19 6.8 44.3 74 2.5 36.5
23:35 1024 30.24 853 25.19 6.5 43.6 76 2.5 36.5
23:40 1023 30.21 853 25.19 6.2 43.2 76 2.4 36.3
23:45 1023 30.21 853 25.19 6 42.7 79 2.7 36.8
23:50 1024 30.24 853 25.19 5.6 42.1 81 2.6 36.6
23:55 1024 30.24 853 25.19 5.7 42.2 80 2.4 36.4
24:00 1024 30.24 853 25.19 5.7 42.2 79 2.4 36.2